Time;durP1;ratioP1;P1;durP2;ratioP2;P2;SDS_P1;SDS_P2;PMS_P1;PMS_P2;Temp;Humidity;BMP_temperature;BMP_pressure;BME280_temperature;BME280_humidity;BME280_pressure;Samples;Min_cycle;Max_cycle;Signal;HPM_P1;HPM_P2
2022/04/27 00:00:24;;;;;;;11.73;4.05;;;;;;;;;;5128093;28;20062;-52
2022/04/27 00:02:49;;;;;;;6.65;3.17;;;;;;;;;;5128013;28;20142;-52
2022/04/27 00:05:15;;;;;;;3.03;2.35;;;;;;;;;;5128005;28;20116;-51
2022/04/27 00:07:40;;;;;;;3.67;2.65;;;;;;;;;;5128051;28;20126;-56
2022/04/27 00:10:06;;;;;;;5.25;3.17;;;;;;;;;;5126241;28;20521;-51
2022/04/27 00:12:31;;;;;;;10.75;2.70;;;;;;;;;;5127771;28;20050;-51
2022/04/27 00:14:57;;;;;;;5.50;2.47;;;;;;;;;;5127687;28;20035;-50
2022/04/27 00:17:22;;;;;;;5.30;3.22;;;;;;;;;;5108547;28;20294;-50
2022/04/27 00:19:47;;;;;;;5.57;2.78;;;;;;;;;;5127806;28;20058;-51
2022/04/27 00:22:13;;;;;;;3.90;2.88;;;;;;;;;;5127730;28;20040;-52
2022/04/27 00:24:39;;;;;;;5.85;2.90;;;;;;;;;;5127788;28;20035;-52
2022/04/27 00:27:05;;;;;;;5.25;2.83;;;;;;;;;;5127373;28;20069;-52
2022/04/27 00:29:30;;;;;;;3.58;2.45;;;;;;;;;;5128002;28;20410;-50
2022/04/27 00:31:56;;;;;;;5.00;2.25;;;;;;;;;;5127810;28;20490;-49
2022/04/27 00:34:21;;;;;;;3.42;2.17;;;;;;;;;;5126773;28;20813;-51
2022/04/27 00:36:46;;;;;;;3.10;1.45;;;;;;;;;;5107939;28;20115;-53
2022/04/27 00:39:12;;;;;;;2.60;1.50;;;;;;;;;;5127582;28;21000;-50
2022/04/27 00:41:37;;;;;;;3.80;2.05;;;;;;;;;;5127590;28;20050;-52
2022/04/27 00:44:03;;;;;;;4.10;1.85;;;;;;;;;;5126974;28;20036;-53
2022/04/27 00:46:29;;;;;;;3.95;2.25;;;;;;;;;;5127010;28;20039;-52
2022/04/27 00:48:54;;;;;;;2.33;1.30;;;;;;;;;;5127217;28;20649;-52
2022/04/27 00:51:21;;;;;;;1.98;1.13;;;;;;;;;;5126965;28;20388;-51
2022/04/27 00:53:48;;;;;;;3.40;1.63;;;;;;;;;;5127189;28;20490;-51
2022/04/27 00:56:14;;;;;;;1.83;1.42;;;;;;;;;;5126731;27;20126;-53
2022/04/27 00:58:39;;;;;;;5.00;1.20;;;;;;;;;;5126545;28;20135;-51
2022/04/27 01:01:05;;;;;;;2.20;1.60;;;;;;;;;;5126746;28;20225;-54
2022/04/27 01:03:30;;;;;;;3.92;1.17;;;;;;;;;;5126190;28;20050;-52
2022/04/27 01:05:57;;;;;;;1.13;0.57;;;;;;;;;;5127046;28;20475;-53
2022/04/27 01:08:22;;;;;;;3.20;1.92;;;;;;;;;;5125655;28;20050;-53
2022/04/27 01:10:48;;;;;;;4.53;2.45;;;;;;;;;;5126431;28;20055;-53
2022/04/27 01:13:14;;;;;;;3.78;2.33;;;;;;;;;;5125940;28;20057;-54
2022/04/27 01:15:40;;;;;;;7.40;3.53;;;;;;;;;;5126952;28;20126;-51
2022/04/27 01:18:08;;;;;;;3.33;2.00;;;;;;;;;;5127054;28;20195;-50
2022/04/27 01:20:44;;;;;;;4.93;3.67;;;;;;;;;;5121396;28;20079;-49
2022/04/27 01:23:11;;;;;;;3.08;2.05;;;;;;;;;;5124986;28;20114;-52
2022/04/27 01:25:48;;;;;;;7.55;1.80;;;;;;;;;;5126764;28;20047;-53
2022/04/27 01:28:14;;;;;;;9.05;2.65;;;;;;;;;;5126106;28;20058;-53
2022/04/27 01:30:39;;;;;;;3.47;1.73;;;;;;;;;;5126920;28;20058;-54
2022/04/27 01:33:08;;;;;;;3.95;1.65;;;;;;;;;;5126483;28;20697;-49
2022/04/27 01:35:33;;;;;;;2.28;1.45;;;;;;;;;;5125931;28;20115;-51
2022/04/27 01:38:01;;;;;;;16.33;2.28;;;;;;;;;;5126661;28;20524;-52
2022/04/27 01:40:26;;;;;;;5.35;2.10;;;;;;;;;;5123880;28;20034;-54
2022/04/27 01:42:55;;;;;;;2.92;1.20;;;;;;;;;;5126366;28;20047;-48
2022/04/27 01:45:23;;;;;;;3.97;0.90;;;;;;;;;;5125574;28;20046;-48
2022/04/27 01:47:48;;;;;;;2.35;1.42;;;;;;;;;;5126337;28;20049;-50
2022/04/27 01:50:14;;;;;;;1.27;0.80;;;;;;;;;;5126343;28;20047;-53
2022/04/27 01:55:23;;;;;;;5.30;2.00;;;;;;;;;;5125784;28;20088;-54
2022/04/27 01:57:48;;;;;;;4.68;1.77;;;;;;;;;;5126400;28;20063;-52
2022/04/27 02:00:15;;;;;;;3.70;1.85;;;;;;;;;;5125405;28;20533;-54
2022/04/27 02:02:40;;;;;;;8.18;3.20;;;;;;;;;;5124338;28;20047;-52
2022/04/27 02:05:06;;;;;;;5.78;2.75;;;;;;;;;;5125246;28;20049;-52
2022/04/27 02:07:31;;;;;;;3.97;2.75;;;;;;;;;;5125834;28;20049;-51
2022/04/27 02:09:56;;;;;;;3.42;1.90;;;;;;;;;;5125447;27;20509;-49
2022/04/27 02:12:21;;;;;;;2.83;1.45;;;;;;;;;;5125880;28;20086;-51
2022/04/27 02:14:47;;;;;;;2.38;1.40;;;;;;;;;;5126099;28;20031;-52
2022/04/27 02:17:12;;;;;;;3.00;1.77;;;;;;;;;;5125579;28;20528;-54
2022/04/27 02:19:37;;;;;;;3.22;1.67;;;;;;;;;;5126114;28;20425;-50
2022/04/27 02:22:03;;;;;;;3.42;1.25;;;;;;;;;;5125777;28;20039;-55
2022/04/27 02:24:29;;;;;;;2.97;1.38;;;;;;;;;;5125531;28;20047;-55
2022/04/27 02:26:54;;;;;;;2.30;1.38;;;;;;;;;;5125457;28;20106;-51
2022/04/27 02:29:21;;;;;;;1.95;1.23;;;;;;;;;;5123697;28;20043;-49
2022/04/27 02:31:46;;;;;;;2.33;1.42;;;;;;;;;;5123452;28;20062;-47
2022/04/27 02:34:11;;;;;;;1.33;0.60;;;;;;;;;;5125031;28;20039;-52
2022/04/27 02:36:36;;;;;;;2.58;1.25;;;;;;;;;;5125227;28;20039;-51
2022/04/27 02:39:02;;;;;;;3.45;2.45;;;;;;;;;;5126104;28;20073;-52
2022/04/27 02:41:28;;;;;;;5.72;2.70;;;;;;;;;;5125768;28;20043;-51
2022/04/27 02:43:54;;;;;;;5.18;1.75;;;;;;;;;;5106822;28;20113;-53
2022/04/27 02:46:19;;;;;;;2.95;2.10;;;;;;;;;;5125051;28;20043;-52
2022/04/27 02:54:30;;;;;;;10.05;2.25;;;;;;;;;;5037811;28;20077;-53
2022/04/27 02:56:55;;;;;;;2.70;2.22;;;;;;;;;;5106624;28;20101;-54
2022/04/27 02:59:21;;;;;;;3.20;2.00;;;;;;;;;;5125131;28;20051;-52
2022/04/27 03:01:46;;;;;;;14.20;3.42;;;;;;;;;;5124860;28;20043;-50
2022/04/27 03:04:11;;;;;;;2.70;2.00;;;;;;;;;;5124949;28;20228;-51
2022/04/27 03:06:37;;;;;;;6.03;1.58;;;;;;;;;;5125452;28;20032;-54
2022/04/27 03:09:02;;;;;;;5.05;2.65;;;;;;;;;;5125759;28;20047;-53
2022/04/27 03:11:27;;;;;;;4.90;1.90;;;;;;;;;;5125609;28;20074;-49
2022/04/27 03:13:53;;;;;;;2.30;1.48;;;;;;;;;;5125028;28;20053;-53
2022/04/27 03:16:18;;;;;;;1.20;1.00;;;;;;;;;;5124872;28;20039;-54
2022/04/27 03:18:43;;;;;;;4.43;1.75;;;;;;;;;;5124381;28;20039;-52
2022/04/27 03:21:09;;;;;;;2.35;1.45;;;;;;;;;;5126900;27;20035;-52
2022/04/27 03:23:35;;;;;;;3.15;2.13;;;;;;;;;;5128923;28;20098;-49
2022/04/27 03:26:00;;;;;;;3.72;2.10;;;;;;;;;;5128010;28;20103;-49
2022/04/27 03:28:25;;;;;;;2.90;1.63;;;;;;;;;;5129388;28;20581;-49
2022/04/27 03:30:51;;;;;;;2.75;2.10;;;;;;;;;;5129212;28;20509;-52
2022/04/27 03:33:16;;;;;;;2.33;1.70;;;;;;;;;;5128577;28;20047;-52
2022/04/27 03:35:42;;;;;;;3.25;1.73;;;;;;;;;;5127525;28;20031;-54
2022/04/27 03:38:08;;;;;;;2.35;1.40;;;;;;;;;;5128661;28;20474;-51
2022/04/27 03:40:33;;;;;;;3.17;1.30;;;;;;;;;;5127991;28;20134;-54
2022/04/27 03:42:59;;;;;;;4.22;1.27;;;;;;;;;;5127705;28;20122;-51
2022/04/27 03:45:24;;;;;;;2.00;1.27;;;;;;;;;;5128534;28;20051;-53
2022/04/27 03:47:50;;;;;;;2.55;1.42;;;;;;;;;;5127880;28;20418;-52
2022/04/27 03:50:15;;;;;;;1.25;0.93;;;;;;;;;;5128505;28;20185;-55
2022/04/27 03:52:41;;;;;;;2.03;1.10;;;;;;;;;;5128721;28;20417;-50
2022/04/27 03:55:07;;;;;;;3.75;2.22;;;;;;;;;;5128216;28;20116;-54
2022/04/27 03:57:32;;;;;;;2.03;1.52;;;;;;;;;;5128307;28;20616;-53
2022/04/27 03:59:57;;;;;;;2.15;1.65;;;;;;;;;;5128533;28;20050;-52
2022/04/27 04:02:23;;;;;;;6.60;1.90;;;;;;;;;;5128311;28;20133;-51
2022/04/27 04:04:48;;;;;;;2.35;1.52;;;;;;;;;;5128173;28;20041;-50
2022/04/27 04:07:13;;;;;;;2.75;1.15;;;;;;;;;;5127389;28;20050;-52
2022/04/27 04:09:39;;;;;;;2.67;1.50;;;;;;;;;;5128145;28;20035;-55
2022/04/27 04:12:05;;;;;;;3.40;1.23;;;;;;;;;;5128328;28;20467;-52
2022/04/27 04:14:30;;;;;;;2.38;1.63;;;;;;;;;;5128149;28;20051;-53
2022/04/27 04:16:56;;;;;;;5.28;2.67;;;;;;;;;;5128115;28;20066;-54
2022/04/27 04:19:21;;;;;;;3.65;2.63;;;;;;;;;;5127929;28;20498;-53
2022/04/27 04:21:46;;;;;;;3.03;2.10;;;;;;;;;;5127875;28;20047;-54
2022/04/27 04:24:11;;;;;;;2.75;2.08;;;;;;;;;;5127979;28;20048;-53
2022/04/27 04:29:21;;;;;;;6.72;2.60;;;;;;;;;;5126654;28;20053;-49
2022/04/27 04:31:46;;;;;;;5.90;2.35;;;;;;;;;;5128336;27;20047;-52
2022/04/27 04:34:12;;;;;;;2.70;2.00;;;;;;;;;;5128247;28;20083;-47
2022/04/27 04:36:37;;;;;;;4.93;1.67;;;;;;;;;;5127670;28;20028;-49
2022/04/27 04:39:02;;;;;;;3.83;1.77;;;;;;;;;;5127796;27;20039;-52
2022/04/27 04:41:28;;;;;;;8.70;1.95;;;;;;;;;;5127777;28;20491;-50
2022/04/27 04:43:53;;;;;;;4.93;1.73;;;;;;;;;;5128148;28;20043;-52
2022/04/27 04:46:18;;;;;;;10.57;2.35;;;;;;;;;;5127178;28;20055;-53
2022/04/27 04:48:44;;;;;;;8.32;2.05;;;;;;;;;;5127717;28;20047;-52
2022/04/27 04:51:09;;;;;;;3.35;1.77;;;;;;;;;;5127161;28;20039;-54
2022/04/27 04:53:34;;;;;;;3.35;2.47;;;;;;;;;;5127545;28;20047;-52
2022/04/27 04:55:59;;;;;;;2.58;1.90;;;;;;;;;;5127860;28;20046;-55
2022/04/27 04:58:25;;;;;;;5.07;2.55;;;;;;;;;;5127741;28;20039;-53
2022/04/27 05:00:50;;;;;;;8.02;2.50;;;;;;;;;;5127916;28;20414;-54
2022/04/27 05:03:16;;;;;;;4.95;2.05;;;;;;;;;;5126902;28;20071;-53
2022/04/27 05:05:41;;;;;;;8.68;3.50;;;;;;;;;;5127129;28;20078;-54
2022/04/27 05:08:09;;;;;;;3.78;1.27;;;;;;;;;;5126002;28;20063;-50
2022/04/27 05:10:34;;;;;;;4.38;1.30;;;;;;;;;;5127081;28;20051;-54
2022/04/27 05:13:00;;;;;;;6.28;1.52;;;;;;;;;;5127002;28;20140;-52
2022/04/27 05:15:25;;;;;;;5.47;1.70;;;;;;;;;;5126230;27;20047;-50
2022/04/27 05:17:50;;;;;;;9.93;2.55;;;;;;;;;;5126799;28;20035;-51
2022/04/27 05:20:15;;;;;;;4.88;1.58;;;;;;;;;;5127185;27;20421;-54
2022/04/27 05:22:41;;;;;;;3.17;2.03;;;;;;;;;;5128158;27;20050;-51
2022/04/27 05:25:07;;;;;;;7.60;1.80;;;;;;;;;;5126729;28;20042;-50
2022/04/27 05:27:32;;;;;;;2.38;1.35;;;;;;;;;;5127093;28;20047;-52
2022/04/27 05:32:45;;;;;;;2.75;1.85;;;;;;;;;;5127432;28;20147;-50
2022/04/27 05:35:11;;;;;;;8.43;3.20;;;;;;;;;;5126837;28;20063;-50
2022/04/27 05:37:37;;;;;;;4.97;2.40;;;;;;;;;;5126728;27;20576;-52
2022/04/27 05:40:03;;;;;;;3.05;1.83;;;;;;;;;;5126386;28;20028;-51
2022/04/27 05:42:28;;;;;;;7.15;1.85;;;;;;;;;;5125692;27;20043;-52
2022/04/27 05:44:53;;;;;;;15.32;3.88;;;;;;;;;;5126239;28;20038;-54
2022/04/27 05:47:19;;;;;;;7.45;4.03;;;;;;;;;;5126480;28;20031;-52
2022/04/27 05:49:44;;;;;;;16.92;7.43;;;;;;;;;;5126520;28;20065;-52
2022/04/27 05:52:09;;;;;;;12.25;5.97;;;;;;;;;;5125927;28;20047;-54
2022/04/27 05:54:34;;;;;;;6.57;4.28;;;;;;;;;;5124990;28;20619;-53
2022/04/27 05:57:00;;;;;;;4.15;2.95;;;;;;;;;;5125283;28;20054;-53
2022/04/27 05:59:25;;;;;;;15.27;5.65;;;;;;;;;;5126462;28;20087;-53
2022/04/27 06:01:50;;;;;;;4.50;2.78;;;;;;;;;;5125406;28;20091;-53
2022/04/27 06:04:16;;;;;;;3.38;2.25;;;;;;;;;;5125975;28;20099;-54
2022/04/27 06:06:41;;;;;;;13.30;4.28;;;;;;;;;;5125689;28;20410;-52
2022/04/27 06:09:06;;;;;;;10.95;5.22;;;;;;;;;;5125571;28;20039;-52
2022/04/27 06:11:32;;;;;;;14.95;4.63;;;;;;;;;;5126291;28;20047;-52
2022/04/27 06:13:57;;;;;;;6.38;4.10;;;;;;;;;;5125783;28;20470;-52
2022/04/27 06:16:24;;;;;;;6.90;3.10;;;;;;;;;;5125625;28;20061;-53
2022/04/27 06:18:50;;;;;;;7.60;4.38;;;;;;;;;;5125995;28;20099;-54
2022/04/27 06:21:17;;;;;;;6.85;3.85;;;;;;;;;;5125273;28;20127;-50
2022/04/27 06:23:42;;;;;;;8.73;4.88;;;;;;;;;;5123230;28;20286;-53
2022/04/27 06:26:08;;;;;;;28.80;7.28;;;;;;;;;;5125511;28;20586;-51
2022/04/27 06:28:33;;;;;;;9.93;6.65;;;;;;;;;;5126015;28;20031;-53
2022/04/27 06:30:58;;;;;;;11.85;5.22;;;;;;;;;;5124784;28;20038;-50
2022/04/27 06:33:24;;;;;;;141.23;102.43;;;;;;;;;;5125533;28;20519;-54
2022/04/27 06:35:50;;;;;;;18.40;12.13;;;;;;;;;;5125829;28;20494;-50
2022/04/27 06:38:16;;;;;;;6.40;5.03;;;;;;;;;;5125538;28;20054;-52
2022/04/27 06:40:41;;;;;;;8.48;4.57;;;;;;;;;;5123735;28;20705;-54
2022/04/27 06:43:07;;;;;;;10.25;4.55;;;;;;;;;;5125206;28;20043;-54
2022/04/27 06:45:33;;;;;;;20.50;5.35;;;;;;;;;;5124213;28;20047;-50
2022/04/27 06:47:58;;;;;;;8.90;5.93;;;;;;;;;;5125273;28;20062;-50
2022/04/27 06:50:25;;;;;;;11.20;6.80;;;;;;;;;;5125520;28;20047;-54
2022/04/27 06:52:52;;;;;;;13.90;5.40;;;;;;;;;;5124568;28;20290;-52
2022/04/27 06:55:17;;;;;;;19.95;6.07;;;;;;;;;;5125266;27;20043;-51
2022/04/27 06:57:43;;;;;;;11.48;10.15;;;;;;;;;;5125836;28;20206;-53
2022/04/27 07:00:08;;;;;;;11.65;9.98;;;;;;;;;;5125049;28;20046;-53
2022/04/27 07:02:34;;;;;;;13.45;8.18;;;;;;;;;;5125003;28;20058;-51
2022/04/27 07:05:01;;;;;;;8.70;7.50;;;;;;;;;;5125197;28;20514;-54
2022/04/27 07:07:26;;;;;;;5.82;5.25;;;;;;;;;;5123529;28;20104;-54
2022/04/27 07:09:52;;;;;;;10.18;5.97;;;;;;;;;;5123789;28;20129;-52
2022/04/27 07:12:18;;;;;;;7.55;5.93;;;;;;;;;;5124972;28;20073;-54
2022/04/27 07:14:43;;;;;;;12.07;6.13;;;;;;;;;;5125066;28;20039;-54
2022/04/27 07:17:09;;;;;;;15.77;12.55;;;;;;;;;;5124593;28;20066;-52
2022/04/27 07:19:34;;;;;;;26.30;19.50;;;;;;;;;;5124826;28;20081;-50
2022/04/27 07:21:59;;;;;;;37.85;29.27;;;;;;;;;;5124700;28;20493;-52
2022/04/27 07:24:25;;;;;;;25.20;19.52;;;;;;;;;;5124922;28;20043;-54
2022/04/27 07:26:51;;;;;;;29.55;21.85;;;;;;;;;;5124928;28;20490;-52
2022/04/27 07:29:16;;;;;;;15.70;13.82;;;;;;;;;;5124279;27;20092;-54
2022/04/27 07:31:41;;;;;;;23.33;13.68;;;;;;;;;;5124796;27;20043;-53
2022/04/27 07:34:07;;;;;;;24.55;16.35;;;;;;;;;;5124504;28;20078;-53
2022/04/27 07:36:32;;;;;;;23.98;11.70;;;;;;;;;;5106372;28;20035;-52
2022/04/27 07:38:57;;;;;;;17.05;12.63;;;;;;;;;;5124857;28;20049;-54
2022/04/27 07:41:23;;;;;;;14.30;12.82;;;;;;;;;;5124021;28;20069;-53
2022/04/27 07:43:48;;;;;;;15.25;12.30;;;;;;;;;;5125184;27;20414;-53
2022/04/27 07:46:13;;;;;;;13.10;11.70;;;;;;;;;;5103441;28;20449;-51
2022/04/27 07:48:39;;;;;;;36.40;15.02;;;;;;;;;;5124463;28;20070;-55
2022/04/27 07:51:07;;;;;;;17.92;14.35;;;;;;;;;;5123991;28;20035;-55
2022/04/27 07:53:32;;;;;;;32.08;16.67;;;;;;;;;;5122840;28;20041;-56
2022/04/27 07:55:58;;;;;;;27.25;15.32;;;;;;;;;;5121870;28;20043;-55
2022/04/27 07:58:23;;;;;;;17.73;15.00;;;;;;;;;;5121174;28;20047;-53
2022/04/27 08:00:49;;;;;;;23.33;20.92;;;;;;;;;;5122408;28;20573;-51
2022/04/27 08:03:14;;;;;;;20.25;18.17;;;;;;;;;;5121193;28;20146;-52
2022/04/27 08:05:39;;;;;;;28.52;20.65;;;;;;;;;;5124035;27;20582;-53
2022/04/27 08:08:05;;;;;;;41.72;26.20;;;;;;;;;;5127506;28;20067;-55
2022/04/27 08:10:31;;;;;;;26.02;17.13;;;;;;;;;;5128304;28;20030;-56
2022/04/27 08:12:56;;;;;;;39.95;29.98;;;;;;;;;;5127613;28;20050;-46
2022/04/27 08:15:23;;;;;;;16.25;13.55;;;;;;;;;;5126331;28;20096;-55
2022/04/27 08:17:56;;;;;;;13.77;9.63;;;;;;;;;;5125694;28;20094;-51
2022/04/27 08:23:10;;;;;;;15.07;6.53;;;;;;;;;;5126549;28;20049;-56
2022/04/27 08:25:36;;;;;;;13.73;5.53;;;;;;;;;;5126974;28;20134;-54
2022/04/27 08:28:05;;;;;;;7.15;5.88;;;;;;;;;;5127538;28;20521;-54
2022/04/27 08:30:31;;;;;;;6.25;4.68;;;;;;;;;;5127482;28;20077;-54
2022/04/27 08:32:59;;;;;;;9.70;3.67;;;;;;;;;;5124343;28;20066;-51
2022/04/27 08:35:25;;;;;;;6.22;3.58;;;;;;;;;;5124928;27;20114;-54
2022/04/27 08:37:50;;;;;;;16.55;4.97;;;;;;;;;;5127452;28;20123;-54
2022/04/27 08:40:16;;;;;;;5.72;2.85;;;;;;;;;;5127401;28;20065;-53
2022/04/27 08:42:41;;;;;;;4.03;2.78;;;;;;;;;;5127466;28;20088;-52
2022/04/27 08:45:07;;;;;;;10.50;4.65;;;;;;;;;;5127855;28;20486;-53
2022/04/27 08:47:32;;;;;;;4.38;3.80;;;;;;;;;;5126218;28;20054;-56
2022/04/27 08:49:58;;;;;;;8.80;4.22;;;;;;;;;;5127793;28;20555;-55
2022/04/27 08:52:24;;;;;;;10.63;6.35;;;;;;;;;;5126481;28;20042;-55
2022/04/27 08:54:50;;;;;;;7.65;4.70;;;;;;;;;;5127136;28;20131;-56
2022/04/27 08:57:15;;;;;;;8.52;3.78;;;;;;;;;;5126756;28;20126;-55
2022/04/27 08:59:40;;;;;;;7.13;4.72;;;;;;;;;;5127302;28;20495;-56
2022/04/27 09:02:24;;;;;;;9.50;4.75;;;;;;;;;;5125677;28;20129;-55
2022/04/27 09:05:06;;;;;;;7.50;5.78;;;;;;;;;;5125718;28;20066;-56
2022/04/27 09:07:36;;;;;;;9.40;5.97;;;;;;;;;;5124587;28;20143;-55
2022/04/27 09:10:02;;;;;;;5.53;3.63;;;;;;;;;;5125154;28;20518;-55
2022/04/27 09:12:27;;;;;;;10.68;5.22;;;;;;;;;;5126297;28;20038;-55
2022/04/27 09:14:57;;;;;;;18.20;5.57;;;;;;;;;;5126017;28;20074;-56
2022/04/27 09:23:06;;;;;;;9.00;4.55;;;;;;;;;;5092304;28;20047;-56
2022/04/27 09:25:32;;;;;;;8.40;3.10;;;;;;;;;;5125375;28;20047;-55
2022/04/27 09:27:59;;;;;;;7.30;3.15;;;;;;;;;;5124097;28;20187;-55
2022/04/27 09:30:27;;;;;;;3.35;2.25;;;;;;;;;;5125433;28;20075;-55
2022/04/27 09:32:53;;;;;;;3.42;2.00;;;;;;;;;;5105389;28;21019;-56
2022/04/27 09:35:32;;;;;;;3.20;2.47;;;;;;;;;;5124220;28;20038;-55
2022/04/27 09:38:10;;;;;;;2.75;1.42;;;;;;;;;;5125483;28;20043;-54
2022/04/27 09:40:42;;;;;;;3.22;1.20;;;;;;;;;;5125806;28;20086;-59
2022/04/27 09:43:09;;;;;;;1.80;0.90;;;;;;;;;;5125523;28;20085;-55
2022/04/27 09:45:34;;;;;;;6.95;2.33;;;;;;;;;;5125809;28;20039;-55
2022/04/27 09:48:03;;;;;;;4.50;2.03;;;;;;;;;;5125848;28;20035;-59
2022/04/27 09:50:58;;;;;;;1.30;1.17;;;;;;;;;;5124261;28;20052;-60
2022/04/27 09:53:24;;;;;;;2.15;1.42;;;;;;;;;;5125501;28;20070;-58
2022/04/27 09:55:50;;;;;;;4.65;1.98;;;;;;;;;;5125227;28;20719;-58
2022/04/27 09:58:19;;;;;;;3.45;1.13;;;;;;;;;;5125484;28;20054;-58
2022/04/27 10:00:50;;;;;;;4.15;1.13;;;;;;;;;;5124420;28;20067;-58
2022/04/27 10:03:18;;;;;;;11.57;1.38;;;;;;;;;;5125472;28;20058;-58
2022/04/27 10:05:44;;;;;;;2.40;1.55;;;;;;;;;;5123455;28;20035;-58
2022/04/27 10:08:10;;;;;;;8.18;3.88;;;;;;;;;;5124022;28;20054;-58
2022/04/27 10:10:39;;;;;;;10.45;3.28;;;;;;;;;;5124704;28;20069;-58
2022/04/27 10:13:04;;;;;;;3.78;1.10;;;;;;;;;;5124485;28;20051;-58
2022/04/27 10:15:30;;;;;;;2.92;1.00;;;;;;;;;;5123647;28;20157;-58
2022/04/27 10:17:56;;;;;;;2.00;0.70;;;;;;;;;;5125220;28;20051;-58
2022/04/27 10:20:34;;;;;;;18.85;1.83;;;;;;;;;;5124475;28;20043;-53
2022/04/27 10:23:15;;;;;;;6.85;1.88;;;;;;;;;;5123720;28;20063;-56
2022/04/27 10:25:40;;;;;;;6.88;2.45;;;;;;;;;;5121787;28;20046;-57
2022/04/27 10:28:35;;;;;;;3.20;1.48;;;;;;;;;;5124964;28;20612;-57
2022/04/27 10:31:03;;;;;;;5.13;2.45;;;;;;;;;;5101358;28;20524;-55
2022/04/27 10:33:48;;;;;;;5.20;1.88;;;;;;;;;;5125017;28;20043;-57
2022/04/27 10:36:20;;;;;;;4.85;2.75;;;;;;;;;;5096519;28;20043;-55
2022/04/27 10:39:08;;;;;;;5.25;2.95;;;;;;;;;;5125347;28;20202;-58
2022/04/27 10:41:33;;;;;;;4.78;1.60;;;;;;;;;;5121807;28;20050;-57
2022/04/27 10:43:59;;;;;;;6.40;1.30;;;;;;;;;;5125143;28;20130;-58
2022/04/27 10:46:38;;;;;;;2.45;2.05;;;;;;;;;;5124609;28;20067;-57
2022/04/27 10:49:29;;;;;;;11.85;3.33;;;;;;;;;;5125028;28;20043;-57
2022/04/27 10:52:02;;;;;;;7.40;1.15;;;;;;;;;;5118272;28;20056;-57
2022/04/27 10:54:28;;;;;;;4.30;1.63;;;;;;;;;;5124617;28;20498;-57
2022/04/27 10:56:55;;;;;;;21.98;2.97;;;;;;;;;;5117942;27;20035;-58
2022/04/27 10:59:39;;;;;;;10.85;2.55;;;;;;;;;;5105639;28;20123;-58
2022/04/27 11:02:04;;;;;;;5.07;1.75;;;;;;;;;;5122846;28;20282;-58
2022/04/27 11:04:33;;;;;;;3.20;2.08;;;;;;;;;;5124440;28;20474;-56
2022/04/27 11:07:11;;;;;;;10.55;7.43;;;;;;;;;;5123515;28;20084;-56
2022/04/27 11:09:55;;;;;;;4.53;1.88;;;;;;;;;;5123612;28;20051;-57
2022/04/27 11:12:20;;;;;;;2.65;1.58;;;;;;;;;;5123958;28;20189;-56
2022/04/27 11:14:46;;;;;;;7.72;1.42;;;;;;;;;;5123964;28;20184;-56
2022/04/27 11:17:13;;;;;;;9.20;2.17;;;;;;;;;;5123743;28;20122;-56
2022/04/27 11:19:42;;;;;;;5.18;3.10;;;;;;;;;;5124785;28;20039;-57
2022/04/27 11:22:09;;;;;;;5.55;4.20;;;;;;;;;;5105633;28;20051;-57
2022/04/27 11:24:37;;;;;;;5.55;3.75;;;;;;;;;;5125291;28;20611;-57
2022/04/27 11:27:03;;;;;;;5.53;3.42;;;;;;;;;;5124624;28;20133;-57
2022/04/27 11:29:32;;;;;;;19.20;7.45;;;;;;;;;;5123016;28;20382;-55
2022/04/27 11:31:58;;;;;;;8.32;4.97;;;;;;;;;;5124398;28;20126;-57
2022/04/27 11:34:24;;;;;;;10.95;6.72;;;;;;;;;;5124603;28;20058;-57
2022/04/27 11:36:50;;;;;;;8.40;3.85;;;;;;;;;;5124831;28;20043;-57
2022/04/27 11:39:22;;;;;;;7.82;3.95;;;;;;;;;;5124230;28;20051;-57
2022/04/27 11:41:57;;;;;;;6.35;2.78;;;;;;;;;;5125542;27;20035;-56
2022/04/27 11:44:22;;;;;;;5.28;2.60;;;;;;;;;;5128537;28;20516;-56
2022/04/27 11:46:47;;;;;;;4.47;3.08;;;;;;;;;;5127645;28;20063;-58
2022/04/27 11:49:13;;;;;;;12.50;3.13;;;;;;;;;;5127761;28;20627;-58
2022/04/27 11:51:38;;;;;;;4.38;2.88;;;;;;;;;;5109526;28;20058;-56
2022/04/27 11:54:03;;;;;;;4.18;2.40;;;;;;;;;;5127840;28;20138;-57
2022/04/27 11:56:35;;;;;;;1.73;1.38;;;;;;;;;;5128115;28;20047;-58
2022/04/27 11:59:07;;;;;;;10.15;3.05;;;;;;;;;;5103557;28;20054;-57
2022/04/27 12:01:32;;;;;;;3.80;3.42;;;;;;;;;;5117800;28;20039;-56
2022/04/27 12:03:57;;;;;;;14.13;5.00;;;;;;;;;;5120615;28;20130;-57
2022/04/27 12:06:26;;;;;;;20.52;6.43;;;;;;;;;;5120964;28;20073;-57
2022/04/27 12:08:52;;;;;;;13.00;5.65;;;;;;;;;;5120544;27;20111;-57
2022/04/27 12:11:23;;;;;;;15.40;5.45;;;;;;;;;;5124255;28;20521;-57
2022/04/27 12:13:49;;;;;;;6.53;3.92;;;;;;;;;;5113536;28;20047;-58
2022/04/27 12:16:15;;;;;;;8.77;3.45;;;;;;;;;;5122167;28;20067;-57
2022/04/27 12:18:52;;;;;;;13.80;3.58;;;;;;;;;;5124591;28;20586;-57
2022/04/27 12:21:19;;;;;;;5.07;1.70;;;;;;;;;;5124584;28;20147;-57
2022/04/27 12:23:44;;;;;;;4.20;2.17;;;;;;;;;;5123976;28;20576;-57
2022/04/27 12:26:11;;;;;;;6.05;2.20;;;;;;;;;;5123542;28;20124;-56
2022/04/27 12:28:47;;;;;;;2.13;0.98;;;;;;;;;;5124321;28;20491;-55
2022/04/27 12:31:14;;;;;;;4.85;1.70;;;;;;;;;;5123918;28;20046;-56
2022/04/27 12:33:59;;;;;;;1.88;1.27;;;;;;;;;;5123410;28;20047;-57
2022/04/27 12:39:20;;;;;;;10.60;6.03;;;;;;;;;;5124430;28;20096;-61
2022/04/27 12:41:47;;;;;;;5.03;2.35;;;;;;;;;;5124830;28;20053;-57
2022/04/27 12:44:16;;;;;;;4.03;2.50;;;;;;;;;;5123700;28;20060;-60
2022/04/27 12:46:54;;;;;;;4.90;1.83;;;;;;;;;;5121200;28;20031;-57
2022/04/27 12:49:29;;;;;;;4.05;1.77;;;;;;;;;;5119296;28;20371;-61
2022/04/27 12:51:57;;;;;;;10.90;2.40;;;;;;;;;;5121552;27;20470;-59
2022/04/27 12:54:35;;;;;;;2.15;1.17;;;;;;;;;;5123595;28;20043;-58
2022/04/27 12:57:01;;;;;;;10.15;1.83;;;;;;;;;;5122730;28;20537;-63
2022/04/27 12:59:27;;;;;;;3.47;1.77;;;;;;;;;;5120857;28;20051;-57
2022/04/27 13:02:00;;;;;;;5.90;1.55;;;;;;;;;;5119633;28;20042;-59
2022/04/27 13:04:27;;;;;;;2.95;1.30;;;;;;;;;;5122356;28;20075;-60
2022/04/27 13:06:54;;;;;;;9.27;3.00;;;;;;;;;;5122128;28;20039;-60
2022/04/27 13:12:07;;;;;;;3.30;1.63;;;;;;;;;;5121020;27;20528;-58
2022/04/27 13:14:32;;;;;;;7.00;2.00;;;;;;;;;;5120833;28;20055;-60
2022/04/27 13:17:00;;;;;;;15.52;1.58;;;;;;;;;;5122405;28;20738;-60
2022/04/27 13:19:26;;;;;;;21.42;19.08;;;;;;;;;;5122234;28;20046;-60
2022/04/27 13:21:51;;;;;;;12.20;4.22;;;;;;;;;;5121487;28;20044;-61
2022/04/27 13:24:17;;;;;;;7.47;3.15;;;;;;;;;;5123409;28;20046;-61
2022/04/27 13:26:44;;;;;;;3.03;1.50;;;;;;;;;;5123689;28;20054;-62
2022/04/27 13:29:12;;;;;;;1.50;0.80;;;;;;;;;;5124187;28;20047;-61
2022/04/27 13:31:43;;;;;;;3.22;1.75;;;;;;;;;;5123887;28;20039;-61
2022/04/27 13:34:08;;;;;;;1.13;0.52;;;;;;;;;;5123733;28;20061;-61
2022/04/27 13:36:34;;;;;;;2.97;1.10;;;;;;;;;;5123533;28;20439;-62
2022/04/27 13:38:59;;;;;;;1.60;0.70;;;;;;;;;;5122949;28;20054;-63
2022/04/27 13:41:27;;;;;;;2.45;1.17;;;;;;;;;;5119441;28;20161;-63
2022/04/27 13:43:56;;;;;;;15.35;1.60;;;;;;;;;;5080114;28;20110;-63
2022/04/27 13:46:31;;;;;;;1.25;0.75;;;;;;;;;;5118761;28;20108;-63
2022/04/27 13:49:07;;;;;;;1.17;0.70;;;;;;;;;;5122497;28;20054;-63
2022/04/27 13:51:35;;;;;;;1.63;0.95;;;;;;;;;;5123132;28;20043;-62
2022/04/27 13:54:04;;;;;;;3.47;1.17;;;;;;;;;;5117572;28;20074;-61
2022/04/27 13:56:29;;;;;;;2.83;1.95;;;;;;;;;;5122767;28;20055;-61
2022/04/27 13:58:59;;;;;;;3.28;1.40;;;;;;;;;;5123391;28;20039;-61
2022/04/27 14:01:29;;;;;;;2.92;1.00;;;;;;;;;;5124210;28;20555;-61
2022/04/27 14:04:03;;;;;;;1.88;1.25;;;;;;;;;;5122146;27;20058;-60
2022/04/27 14:06:28;;;;;;;3.75;1.80;;;;;;;;;;5121789;28;20051;-61
2022/04/27 14:08:56;;;;;;;6.88;1.23;;;;;;;;;;5123011;28;20039;-61
2022/04/27 14:14:05;;;;;;;1.45;1.13;;;;;;;;;;5123726;28;20534;-58
2022/04/27 14:19:15;;;;;;;1.60;0.70;;;;;;;;;;5123143;28;20054;-58
2022/04/27 14:21:41;;;;;;;2.08;1.08;;;;;;;;;;5123734;28;20039;-58
2022/04/27 14:24:09;;;;;;;2.15;1.20;;;;;;;;;;5122558;28;20039;-58
2022/04/27 14:26:38;;;;;;;1.90;1.20;;;;;;;;;;5123476;28;20062;-58
2022/04/27 14:29:03;;;;;;;8.38;1.23;;;;;;;;;;5123199;28;20054;-57
2022/04/27 14:31:29;;;;;;;3.75;1.73;;;;;;;;;;5123350;28;20395;-58
2022/04/27 14:33:55;;;;;;;3.90;1.90;;;;;;;;;;5123157;28;20050;-58
2022/04/27 14:36:36;;;;;;;7.15;3.10;;;;;;;;;;5122788;28;20426;-59
2022/04/27 14:39:02;;;;;;;6.15;2.33;;;;;;;;;;5121678;28;20126;-58
2022/04/27 14:41:34;;;;;;;4.60;2.38;;;;;;;;;;5118590;28;20157;-58
2022/04/27 14:44:01;;;;;;;3.33;1.15;;;;;;;;;;5122702;28;20662;-58
2022/04/27 14:46:29;;;;;;;3.20;1.00;;;;;;;;;;5123373;28;20095;-58
2022/04/27 14:48:54;;;;;;;2.30;1.35;;;;;;;;;;5101600;28;20541;-58
2022/04/27 14:51:19;;;;;;;1.35;0.85;;;;;;;;;;5122740;28;20039;-59
2022/04/27 14:53:47;;;;;;;2.80;1.90;;;;;;;;;;5123314;28;20036;-58
2022/04/27 14:56:12;;;;;;;1.90;0.90;;;;;;;;;;5121983;28;20339;-58
2022/04/27 14:58:38;;;;;;;1.38;0.57;;;;;;;;;;5121614;28;20494;-58
2022/04/27 15:01:03;;;;;;;3.00;1.33;;;;;;;;;;5122409;28;20041;-58
2022/04/27 15:03:29;;;;;;;4.85;1.98;;;;;;;;;;5122928;28;20126;-58
2022/04/27 15:05:55;;;;;;;8.25;1.75;;;;;;;;;;5122031;28;20096;-58
2022/04/27 15:08:20;;;;;;;3.58;1.58;;;;;;;;;;5121399;28;20043;-58
2022/04/27 15:10:46;;;;;;;6.00;1.40;;;;;;;;;;5123524;28;20521;-58